地図

経路データ

SID SEASON NUMBER BASIN SUBBASIN NAME ISO_TIME NATURE LAT LON WMO_WIND WMO_PRES WMO_AGENCY TRACK_TYPE DIST2LAND LANDFALL IFLAG USA_AGENCY USA_ATCF_ID USA_LAT USA_LON USA_RECORD USA_STATUS USA_WIND USA_PRES USA_SSHS USA_R34_NE USA_R34_SE USA_R34_SW USA_R34_NW USA_R50_NE USA_R50_SE USA_R50_SW USA_R50_NW USA_R64_NE USA_R64_SE USA_R64_SW USA_R64_NW USA_POCI USA_ROCI USA_RMW USA_EYE TOKYO_LAT TOKYO_LON TOKYO_GRADE TOKYO_WIND TOKYO_PRES TOKYO_R50_DIR TOKYO_R50_LONG TOKYO_R50_SHORT TOKYO_R30_DIR TOKYO_R30_LONG TOKYO_R30_SHORT TOKYO_LAND CMA_LAT CMA_LON CMA_CAT CMA_WIND CMA_PRES HKO_LAT HKO_LON HKO_CAT HKO_WIND HKO_PRES NEWDELHI_LAT NEWDELHI_LON NEWDELHI_GRADE NEWDELHI_WIND NEWDELHI_PRES NEWDELHI_CI NEWDELHI_DP NEWDELHI_POCI REUNION_LAT REUNION_LON REUNION_TYPE REUNION_WIND REUNION_PRES REUNION_TNUM REUNION_CI REUNION_RMW REUNION_R34_NE REUNION_R34_SE REUNION_R34_SW REUNION_R34_NW REUNION_R50_NE REUNION_R50_SE REUNION_R50_SW REUNION_R50_NW REUNION_R64_NE REUNION_R64_SE REUNION_R64_SW REUNION_R64_NW BOM_LAT BOM_LON BOM_TYPE BOM_WIND BOM_PRES BOM_TNUM BOM_CI BOM_RMW BOM_R34_NE BOM_R34_SE BOM_R34_SW BOM_R34_NW BOM_R50_NE BOM_R50_SE BOM_R50_SW BOM_R50_NW BOM_R64_NE BOM_R64_SE BOM_R64_SW BOM_R64_NW BOM_ROCI BOM_POCI BOM_EYE BOM_POS_METHOD BOM_PRES_METHOD NADI_LAT NADI_LON NADI_CAT NADI_WIND NADI_PRES WELLINGTON_LAT WELLINGTON_LON WELLINGTON_WIND WELLINGTON_PRES DS824_LAT DS824_LON DS824_STAGE DS824_WIND DS824_PRES TD9636_LAT TD9636_LON TD9636_STAGE TD9636_WIND TD9636_PRES TD9635_LAT TD9635_LON TD9635_WIND TD9635_PRES TD9635_ROCI NEUMANN_LAT NEUMANN_LON NEUMANN_CLASS NEUMANN_WIND NEUMANN_PRES MLC_LAT MLC_LON MLC_CLASS MLC_WIND MLC_PRES USA_GUST BOM_GUST BOM_GUST_PER REUNION_GUST REUNION_GUST_PER USA_SEAHGT USA_SEARAD_NE USA_SEARAD_SE USA_SEARAD_SW USA_SEARAD_NW STORM_SPEED STORM_DIR
2019074S08151 2019 16 SP EA TREVOR 2019-03-14 18:00:00 TS -8.10000 151.000 main 204 189 O_____________ jtwc_sh SH202019 -8.10000 151.000 TD 25 1004 -1 1007 135 45 3 232
2019074S08151 2019 16 SP EA TREVOR 2019-03-14 21:00:00 TS -8.18751 150.890 main 189 174 P_____________ SH202019 -8.18751 150.890 TD 27 1002 -1 1007 135 45 3 225
2019074S08151 2019 16 SP EA TREVOR 2019-03-15 00:00:00 TS -8.30000 150.800 main 174 159 O_____________ jtwc_sh SH202019 -8.30000 150.800 TD 30 1000 -1 1007 135 45 3 209
2019074S08151 2019 16 SP EA TREVOR 2019-03-15 03:00:00 TS -8.45000 150.743 main 159 139 P_____________ SH202019 -8.45000 150.743 TD 30 1000 -1 1006 135 45 3 197
2019074S08151 2019 16 SP EA TREVOR 2019-03-15 06:00:00 TS -8.60000 150.700 main 139 129 O_____________ jtwc_sh SH202019 -8.60000 150.700 TD 30 1000 -1 1006 135 45 3 198
2019074S08151 2019 16 SP EA TREVOR 2019-03-15 09:00:00 TS -8.69999 150.665 main 129 114 P_____________ SH202019 -8.69999 150.665 TD 30 1000 -1 1006 132 45 2 207
2019074S08151 2019 16 SP EA TREVOR 2019-03-15 12:00:00 TS -8.80000 150.600 main 114 99 O_____________ jtwc_sh SH202019 -8.80000 150.600 TD 30 1000 -1 1006 130 45 3 218
2019074S08151 2019 16 SP EA TREVOR 2019-03-15 15:00:00 TS -8.94250 150.473 main 99 70 P_____________ SH202019 -8.94250 150.473 TD 32 999 -1 1006 130 45 4 224
2019074S08151 2019 16 SP EA TREVOR 2019-03-15 18:00:00 TS -9.10000 150.300 main 70 56 O_____________ jtwc_sh SH202019 -9.10000 150.300 TS 35 998 0 70 45 80 95 1006 130 45 5 230
2019074S08151 2019 16 SP EA TREVOR 2019-03-15 21:00:00 TS -9.25001 150.100 main 44 35 P_____________ SH202019 -9.25001 150.100 TS 35 999 0 60 47 102 107 1006 112 45 5 233
2019074S08151 2019 16 SP EA TREVOR 2019-03-16 00:00:00 TS -9.40000 149.900 main 35 22 O_____________ jtwc_sh SH202019 -9.40000 149.900 TS 35 1000 0 50 50 125 120 1007 95 45 4 228
2019074S08151 2019 16 SP EA TREVOR 2019-03-16 03:00:00 TS -9.54994 149.765 main 22 0 P_____________ SH202019 -9.54994 149.765 TS 35 1000 0 42 50 145 127 1007 97 45 4 224
2019074S08151 2019 16 SP EA TREVOR 2019-03-16 06:00:00 TS -9.70000 149.600 main 0 0 O_____________ jtwc_sh SH202019 -9.70000 149.600 TS 35 1000 0 35 50 165 135 1007 100 45 5 235
2019074S08151 2019 16 SP EA TREVOR 2019-03-16 09:00:00 TS -9.83489 149.360 main 0 0 P_____________ SH202019 -9.83489 149.360 TS 30 1002 -1 1007 100 45 7 243
2019074S08151 2019 16 SP EA TREVOR 2019-03-16 12:00:00 TS -10.0000 149.000 main 0 0 O_____________ jtwc_sh SH202019 -10.0000 149.000 TD 25 1004 -1 1007 100 45 10 245
2019074S08151 2019 16 SP EA TREVOR 2019-03-16 15:00:00 TS -10.2351 148.480 main 0 0 P_____________ SH202019 -10.2351 148.480 TD 25 1004 -1 1007 112 45 12 245
2019074S08151 2019 16 SP EA TREVOR 2019-03-16 18:00:00 TS -10.5000 147.900 main 35 35 O_____________ jtwc_sh SH202019 -10.5000 147.900 TD 25 1005 -1 1007 125 45 12 247
2019074S08151 2019 16 SP EA TREVOR 2019-03-16 21:00:00 TS -10.7276 147.325 main 80 80 P_____________ SH202019 -10.7276 147.325 TD 27 1005 -1 1008 145 45 11 243
2019074S08151 2019 16 SP EA TREVOR 2019-03-17 00:00:00 TS -11.0000 146.900 main 133 133 O_____________ jtwc_sh SH202019 -11.0000 146.900 TD 30 1005 -1 1009 165 45 9 218
2019074S08151 2019 16 SP EA TREVOR 2019-03-17 03:00:00 TS -11.3999 146.790 main 175 175 P_____________ SH202019 -11.3999 146.790 TD 30 1005 -1 1009 167 37 8 187
2019074S08151 2019 16 SP EA TREVOR 2019-03-17 06:00:00 TS -11.8000 146.800 main 214 214 O_____________ jtwc_sh SH202019 -11.8000 146.800 TD 30 1005 -1 1009 170 30 7 184
2019074S08151 2019 16 SP EA TREVOR 2019-03-17 09:00:00 TS -12.1099 146.738 main 249 249 P_____________ SH202019 -12.1099 146.738 TD 30 1006 -1 1009 170 30 5 201
2019074S08151 2019 16 SP EA TREVOR 2019-03-17 12:00:00 TS -12.3000 146.600 main 274 274 O_____________ jtwc_sh SH202019 -12.3000 146.600 TD 30 1007 -1 1009 170 30 5 242
2019074S08151 2019 16 SP EA TREVOR 2019-03-17 15:00:00 TS -12.3301 146.315 main 289 276 P_____________ SH202019 -12.3301 146.315 TD 32 1005 -1 1008 157 30 6 270
2019074S08151 2019 16 SP EA TREVOR 2019-03-17 18:00:00 TS -12.3000 146.000 main 276 258 O_____________ jtwc_sh SH202019 -12.3000 146.000 TS 35 1003 0 30 45 30 1007 145 30 5 269
2019074S08151 2019 16 SP EA TREVOR 2019-03-17 21:00:00 TS -12.3425 145.778 main 258 234 P_____________ SH202019 -12.3425 145.778 TS 40 1000 0 45 60 57 1007 155 30 4 256
2019074S08151 2019 16 SP EA TREVOR 2019-03-18 00:00:00 TS -12.4000 145.600 main 234 224 O_____________ jtwc_sh SH202019 -12.4000 145.600 TS 45 998 0 60 75 85 45 1008 165 30 3 253
2019074S08151 2019 16 SP EA TREVOR 2019-03-18 03:00:00 TS -12.4425 145.442 main 213 200 P_____________ SH202019 -12.4425 145.442 TS 50 995 0 67 82 57 52 7 10 1008 165 25 3 251
2019074S08151 2019 16 SP EA TREVOR 2019-03-18 06:00:00 TS -12.5000 145.300 main 200 187 O_____________ jtwc_sh SH202019 -12.5000 145.300 TS 55 992 0 75 90 30 60 15 20 1008 165 20 3 241
2019074S08151 2019 16 SP EA TREVOR 2019-03-18 09:00:00 TS -12.5925 145.158 main 187 164 P_____________ SH202019 -12.5925 145.158 TS 60 987 0 72 80 42 57 22 25 1006 142 17 4 236
2019074S08151 2019 16 SP EA TREVOR 2019-03-18 12:00:00 TS -12.7000 145.000 main 164 141 O_____________ jtwc_sh SH202019 -12.7000 145.000 TY 65 982 1 70 70 55 55 30 30 25 25 1004 120 15 4 237
2019074S08151 2019 16 SP EA TREVOR 2019-03-18 15:00:00 TS -12.8075 144.815 main 141 119 P_____________ SH202019 -12.8075 144.815 TY 77 974 1 72 72 57 57 32 32 30 30 1005 150 10 4 243
2019074S08151 2019 16 SP EA TREVOR 2019-03-18 18:00:00 TS -12.9000 144.600 main 119 97 O_____________ jtwc_sh SH202019 -12.9000 144.600 TY 90 966 2 75 75 60 60 35 35 35 35 25 25 25 25 1006 180 5 10 5 251
2019074S08151 2019 16 SP EA TREVOR 2019-03-18 21:00:00 TS -12.9650 144.358 main 97 65 P_____________ SH202019 -12.9650 144.358 TY 92 964 2 80 80 60 60 40 40 35 35 22 22 20 20 1006 180 5 5 258
2019074S08151 2019 16 SP EA TREVOR 2019-03-19 00:00:00 TS -13.0000 144.100 main 65 43 O_____________ jtwc_sh SH202019 -13.0000 144.100 TY 95 962 2 85 85 60 60 45 45 35 35 20 20 15 15 1006 180 5 10 5 265
2019074S08151 2019 16 SP EA TREVOR 2019-03-19 03:00:00 TS -13.0075 143.842 main 32 10 P_____________ SH202019 -13.0075 143.842 TY 100 956 3 85 97 72 62 45 55 37 35 22 25 17 17 1004 172 6 5 270
2019074S08151 2019 16 SP EA TREVOR 2019-03-19 06:00:00 TS -13.0000 143.600 main 10 0 O_____________ jtwc_sh SH202019 -13.0000 143.600 TY 105 950 3 85 110 85 65 45 65 40 35 25 30 20 20 1002 165 7 5 4 272
2019074S08151 2019 16 SP EA TREVOR 2019-03-19 09:00:00 TS -12.9924 143.400 main 0 0 P_____________ SH202019 -12.9924 143.400 TY 97 956 3 92 115 92 80 45 57 42 40 22 25 17 17 1002 165 7 4 270
2019074S08151 2019 16 SP EA TREVOR 2019-03-19 12:00:00 TS -13.0000 143.200 main 0 0 O_____________ jtwc_sh SH202019 -13.0000 143.200 TY 90 962 2 100 120 100 95 45 50 45 45 20 20 15 15 1003 165 7 4 262
2019074S08151 2019 16 SP EA TREVOR 2019-03-19 15:00:00 TS -13.0500 142.958 main 0 0 P_____________ SH202019 -13.0500 142.958 TY 85 967 2 102 120 100 95 50 55 47 47 22 25 22 20 1004 165 11 5 258
2019074S08151 2019 16 SP EA TREVOR 2019-03-19 18:00:00 TS -13.1000 142.700 main 0 0 O_____________ jtwc_sh SH202019 -13.1000 142.700 TY 80 973 1 105 120 100 95 55 60 50 50 25 30 30 25 1006 165 15 5 263
2019074S08151 2019 16 SP EA TREVOR 2019-03-19 21:00:00 TS -13.1150 142.427 main 0 0 P_____________ SH202019 -13.1150 142.427 TY 72 977 1 110 125 97 97 52 57 47 47 22 27 27 22 1005 167 17 5 270
2019074S08151 2019 16 SP EA TREVOR 2019-03-20 00:00:00 TS -13.1000 142.200 main 0 0 O_____________ jtwc_sh SH202019 -13.1000 142.200 TY 65 981 1 115 130 95 100 50 55 45 45 20 25 25 20 1004 170 20 80 3 280
2019074S08151 2019 16 SP EA TREVOR 2019-03-20 03:00:00 TS -13.0575 142.077 main 0 0 P_____________ SH202019 -13.0575 142.077 TY 62 982 0 107 127 100 92 45 52 42 42 1003 170 20 2 297
2019074S08151 2019 16 SP EA TREVOR 2019-03-20 06:00:00 TS -13.0000 142.000 main 0 0 O_____________ jtwc_sh SH202019 -13.0000 142.000 TS 60 983 0 100 125 105 85 40 50 40 40 1003 170 20 2 304
2019074S08151 2019 16 SP EA TREVOR 2019-03-20 09:00:00 TS -12.9425 141.900 main 0 0 P_____________ SH202019 -12.9425 141.900 TS 52 988 0 97 95 67 72 20 25 20 20 1003 157 20 2 297
2019074S08151 2019 16 SP EA TREVOR 2019-03-20 12:00:00 TS -12.9000 141.800 main 0 0 O_____________ jtwc_sh SH202019 -12.9000 141.800 TS 45 993 0 95 65 30 60 1003 145 20 2 286
2019074S08151 2019 16 SP EA TREVOR 2019-03-20 15:00:00 TS -12.8850 141.693 main 0 0 P_____________ SH202019 -12.8850 141.693 TS 47 991 0 72 55 57 57 1003 140 20 2 270
2019074S08151 2019 16 SP EA TREVOR 2019-03-20 18:00:00 TS -12.9000 141.600 main 10 10 O_____________ jtwc_sh SH202019 -12.9000 141.600 TS 50 990 0 50 45 85 55 1003 135 20 2 254
2019074S08151 2019 16 SP EA TREVOR 2019-03-20 21:00:00 TS -12.9275 141.542 main 15 10 P_____________ SH202019 -12.9275 141.542 TS 50 989 0 67 67 85 65 1003 135 20 1 223
2019074S08151 2019 16 SP EA TREVOR 2019-03-21 00:00:00 TS -13.0000 141.500 main 10 10 O_____________ jtwc_sh SH202019 -13.0000 141.500 TS 50 989 0 85 90 85 75 1003 135 20 2 203
2019074S08151 2019 16 SP EA TREVOR 2019-03-21 03:00:00 TS -13.1200 141.465 main 15 15 P_____________ SH202019 -13.1200 141.465 TS 52 987 0 85 92 82 80 1003 132 20 3 197
2019074S08151 2019 16 SP EA TREVOR 2019-03-21 06:00:00 TS -13.3000 141.400 main 31 21 O_____________ jtwc_sh SH202019 -13.3000 141.400 TS 55 986 0 85 95 80 85 20 20 20 20 1003 130 20 5 200
2019074S08151 2019 16 SP EA TREVOR 2019-03-21 09:00:00 TS -13.5574 141.303 main 32 32 P_____________ SH202019 -13.5574 141.303 TS 60 983 0 80 87 75 77 20 20 17 20 1003 150 20 6 210
2019074S08151 2019 16 SP EA TREVOR 2019-03-21 12:00:00 TS -13.8000 141.100 main 44 44 O_____________ jtwc_sh SH202019 -13.8000 141.100 TY 65 981 1 75 80 70 70 20 20 15 20 1003 170 20 7 238
2019074S08151 2019 16 SP EA TREVOR 2019-03-21 15:00:00 TS -13.9077 140.715 main 86 86 P_____________ SH202019 -13.9077 140.715 TY 67 981 1 72 87 80 67 27 30 25 27 1004 180 20 8 256
2019074S08151 2019 16 SP EA TREVOR 2019-03-21 18:00:00 TS -14.0000 140.300 main 130 130 O_____________ jtwc_sh SH202019 -14.0000 140.300 TY 70 981 1 70 95 90 65 35 40 35 35 20 20 20 20 1006 190 20 7 247
2019074S08151 2019 16 SP EA TREVOR 2019-03-21 21:00:00 TS -14.1924 140.027 main 165 163 P_____________ SH202019 -14.1924 140.027 TY 75 976 1 80 105 95 70 37 42 40 35 22 22 20 20 1005 190 20 6 230
2019074S08151 2019 16 SP EA TREVOR 2019-03-22 00:00:00 TS -14.4000 139.800 main 183 183 O_____________ jtwc_sh SH202019 -14.4000 139.800 TY 80 972 1 90 115 100 75 40 45 45 35 25 25 20 20 1004 190 20 6 232
2019074S08151 2019 16 SP EA TREVOR 2019-03-22 03:00:00 TS -14.5575 139.550 main 215 215 P_____________ SH202019 -14.5575 139.550 TY 85 968 2 95 120 110 85 45 55 52 40 25 30 25 22 1004 195 20 6 238
2019074S08151 2019 16 SP EA TREVOR 2019-03-22 06:00:00 TS -14.7000 139.300 main 237 216 O_____________ jtwc_sh SH202019 -14.7000 139.300 TY 90 964 2 100 125 120 95 50 65 60 45 25 35 30 25 1004 200 20 5 240
2019074S08151 2019 16 SP EA TREVOR 2019-03-22 09:00:00 TS -14.8274 139.057 main 216 178 P_____________ SH202019 -14.8274 139.057 TY 92 961 2 107 132 125 97 55 70 65 47 27 37 32 25 1003 195 12 6 238
2019074S08151 2019 16 SP EA TREVOR 2019-03-22 12:00:00 TS -15.0000 138.800 main 178 132 O_____________ jtwc_sh SH202019 -15.0000 138.800 TY 95 958 2 115 140 130 100 60 75 70 50 30 40 35 25 1002 190 5 7 229
2019074S08151 2019 16 SP EA TREVOR 2019-03-22 15:00:00 TS -15.2850 138.515 main 132 85 P_____________ SH202019 -15.2850 138.515 TY 102 953 3 115 140 130 100 60 72 70 57 30 40 35 30 1003 195 6 8 224
2019074S08151 2019 16 SP EA TREVOR 2019-03-22 18:00:00 TS -15.6000 138.200 main 85 49 O_____________ jtwc_sh SH202019 -15.6000 138.200 TY 110 948 3 115 140 130 100 60 70 70 65 30 40 35 35 1005 200 7 5 8 228
2019074S08151 2019 16 SP EA TREVOR 2019-03-22 21:00:00 TS -15.8499 137.865 main 49 10 P_____________ SH202019 -15.8499 137.865 TY 107 950 3 117 147 135 105 62 77 72 62 32 42 37 32 1005 200 7 8 233
2019074S08151 2019 16 SP EA TREVOR 2019-03-23 00:00:00 TS -16.1000 137.500 main 10 0 O_____________ jtwc_sh SH202019 -16.1000 137.500 TY 105 952 3 120 155 140 110 65 85 75 60 35 45 40 30 1005 200 7 5 9 234
2019074S08151 2019 16 SP EA TREVOR 2019-03-23 03:00:00 TS -16.3850 137.107 main 0 0 P_____________ SH202019 -16.3850 137.107 TY 100 955 3 132 160 127 110 72 87 67 57 37 47 35 30 1003 187 6 10 232
2019074S08151 2019 16 SP EA TREVOR 2019-03-23 06:00:00 TS -16.7000 136.700 main 0 0 O_____________ jtwc_sh SH202019 -16.7000 136.700 TY 95 958 2 145 165 115 110 80 90 60 55 40 50 30 30 1002 175 5 10 10 231
2019074S08151 2019 16 SP EA TREVOR 2019-03-23 09:00:00 TS -17.0275 136.292 main 0 0 P_____________ SH202019 -17.0275 136.292 TY 85 966 2 147 165 115 110 80 90 60 55 42 50 30 30 1002 167 10 10 228
2019074S08151 2019 16 SP EA TREVOR 2019-03-23 12:00:00 TS -17.4000 135.900 main 0 0 O_____________ jtwc_sh SH202019 -17.4000 135.900 TY 75 974 1 150 165 115 110 80 90 60 55 45 50 30 30 1003 160 15 11 223
2019074S08151 2019 16 SP EA TREVOR 2019-03-23 15:00:00 TS -17.8351 135.498 main 0 0 P_____________ SH202019 -17.8351 135.498 TY 67 976 1 122 142 110 97 62 75 55 47 22 25 15 15 1003 160 15 11 217
2019074S08151 2019 16 SP EA TREVOR 2019-03-23 18:00:00 TS -18.3000 135.200 main 0 0 O_____________ jtwc_sh SH202019 -18.3000 135.200 TS 60 978 0 95 120 105 85 45 60 50 40 1003 160 15 10 202
2019074S08151 2019 16 SP EA TREVOR 2019-03-23 21:00:00 TS -18.7724 135.097 main 0 0 P_____________ SH202019 -18.7724 135.097 TS 55 984 0 85 97 90 80 37 45 40 35 1003 160 15 9 186
2019074S08151 2019 16 SP EA TREVOR 2019-03-24 00:00:00 TS -19.2000 135.100 main 0 0 O_____________ jtwc_sh SH202019 -19.2000 135.100 TS 50 991 0 75 75 75 75 30 30 30 30 1003 160 15 8 0
2019074S08151 2019 16 SP EA TREVOR 2019-03-24 03:00:00 TS -19.5225 135.085 main 0 0 P_____________ SH202019 -19.5225 135.085 TS 47 990 0 75 70 75 77 1002 150 15 6 179
2019074S08151 2019 16 SP EA TREVOR 2019-03-24 06:00:00 TS -19.8000 135.100 main 0 0 O_____________ jtwc_sh SH202019 -19.8000 135.100 TS 45 989 0 75 65 75 80 1002 140 15 6 176
2019074S08151 2019 16 SP EA TREVOR 2019-03-24 09:00:00 TS -20.1300 135.128 main 0 0 P_____________ SH202019 -20.1300 135.128 TS 40 993 0 75 65 75 80 1002 140 15 6 171
2019074S08151 2019 16 SP EA TREVOR 2019-03-24 12:00:00 TS -20.4000 135.200 main 0 0 O_____________ jtwc_sh SH202019 -20.4000 135.200 TS 35 997 0 75 65 75 80 1002 140 15 4 156
2019074S08151 2019 16 SP EA TREVOR 2019-03-24 15:00:00 TS -20.5149 135.313 main 0 0 P_____________ SH202019 -20.5149 135.313 TS 32 997 -1 1002 140 20 3 125
2019074S08151 2019 16 SP EA TREVOR 2019-03-24 18:00:00 TS -20.6000 135.500 main 0 0 O_____________ jtwc_sh SH202019 -20.6000 135.500 TD 30 998 -1 1002 140 25 5 123
2019074S08151 2019 16 SP EA TREVOR 2019-03-24 21:00:00 TS -20.7925 135.777 main 0 0 P_____________ SH202019 -20.7925 135.777 TD 30 999 -1 1002 140 25 7 126
2019074S08151 2019 16 SP EA TREVOR 2019-03-25 00:00:00 TS -21.0000 136.100 main 0 0 O_____________ jtwc_sh SH202019 -21.0000 136.100 TD 30 1000 -1 1002 140 25 7 122
2019074S08151 2019 16 SP EA TREVOR 2019-03-25 03:00:00 TS -21.1575 136.408 main 0 0 P_____________ SH202019 -21.1575 136.408 TD 25 1001 -1 1002 140 25 6 118
2019074S08151 2019 16 SP EA TREVOR 2019-03-25 06:00:00 NR -21.3000 136.700 main 0 0 O_____________ jtwc_sh SH202019 -21.3000 136.700 DB 20 1002 -3 1002 140 25 6 122
2019074S08151 2019 16 SP EA TREVOR 2019-03-25 09:00:00 NR -21.4724 136.942 main 0 0 P_____________ SH202019 -21.4724 136.942 DB 20 1002 -3 1002 140 25 6 123
2019074S08151 2019 16 SP EA TREVOR 2019-03-25 12:00:00 NR -21.6000 137.200 main 0 0 O_____________ jtwc_sh SH202019 -21.6000 137.200 DB 20 1002 -3 1002 140 25 6 106
2019074S08151 2019 16 SP EA TREVOR 2019-03-25 15:00:00 NR -21.6302 137.528 main 0 0 P_____________ SH202019 -21.6302 137.528 DB 20 1004 -3 1002 140 25 7 90
2019074S08151 2019 16 SP EA TREVOR 2019-03-25 18:00:00 NR -21.6000 137.900 main 0 O_____________ jtwc_sh SH202019 -21.6000 137.900 DB 20 1007 -3 1002 140 25 7 85

デジタル台風データ・検索

IBTrACS Databaseについて

本データベースは、米国NOAAが公開する1842年以降の世界の熱帯低気圧のベストトラックデータアーカイブInternational Best Track Archive for Climate Stewardship (IBTrACS)を、ウェブで閲覧しやすい形式に変換したものです。

最終更新日:2021-12-03